HZCMJ OERK-OEJN
Flight info
| Callsign | HZCMJ |
|---|---|
| Flight time | 1h 19m |
| Altitude | 30000 |
| Route | UMAS1B UMASU M309 VEMEM VEME1A |
| Aircraft | A319/M-SDE3FGHIRWY/LB1 |
Departure
| Time | 2026-04-30 19:00 |
|---|---|
| Airport | King Khalid International Airport (OERK) |
Arrival
| Time | 2026-04-30 20:20 |
|---|---|
| Airport | King Abdulaziz International Airport (OEJN) |
| Time | Latitude | Longitude | Altitude | Speed | Heading |
|---|---|---|---|---|---|
| 2026-04-30 18:45 | 24.95660 | 46.69550 | 2037 ft | 0 kts | 120° |
| 2026-04-30 18:53 | 24.95662 | 46.69547 | 2030 ft | 3 kts | 120° |
| 2026-04-30 18:53 | 24.95675 | 46.69522 | 2033 ft | 4 kts | 120° |
| 2026-04-30 18:53 | 24.95689 | 46.69496 | 2033 ft | 4 kts | 120° |
| 2026-04-30 18:53 | 24.95700 | 46.69476 | 2030 ft | 4 kts | 126° |
| 2026-04-30 18:54 | 24.95718 | 46.69455 | 2030 ft | 4 kts | 150° |
| 2026-04-30 18:54 | 24.95743 | 46.69445 | 2038 ft | 4 kts | 180° |
| 2026-04-30 18:54 | 24.95755 | 46.69446 | 2030 ft | 0 kts | 188° |
| 2026-04-30 18:55 | 24.95750 | 46.69445 | 2030 ft | 3 kts | 188° |
| 2026-04-30 18:56 | 24.95698 | 46.69367 | 2030 ft | 11 kts | 273° |
| 2026-04-30 18:56 | 24.95722 | 46.69266 | 2034 ft | 15 kts | 285° |
| 2026-04-30 18:56 | 24.95709 | 46.69148 | 2037 ft | 18 kts | 240° |
| 2026-04-30 18:57 | 24.95563 | 46.68869 | 2036 ft | 16 kts | 241° |
| 2026-04-30 18:57 | 24.95616 | 46.68769 | 2029 ft | 19 kts | 330° |
| 2026-04-30 18:57 | 24.95745 | 46.68686 | 2034 ft | 24 kts | 330° |
| 2026-04-30 18:58 | 24.96077 | 46.68477 | 2034 ft | 31 kts | 330° |
| 2026-04-30 18:58 | 24.96270 | 46.68355 | 2034 ft | 33 kts | 329° |
| 2026-04-30 18:58 | 24.96460 | 46.68234 | 2032 ft | 31 kts | 330° |
| 2026-04-30 18:59 | 24.96645 | 46.68028 | 2035 ft | 18 kts | 238° |
| 2026-04-30 19:00 | 24.96180 | 46.68067 | 2032 ft | 80 kts | 150° |
| 2026-04-30 19:00 | 24.95484 | 46.68507 | 2031 ft | 147 kts | 150° |
| 2026-04-30 19:00 | 24.93397 | 46.69762 | 3132 ft | 177 kts | 156° |
| 2026-04-30 19:01 | 24.90931 | 46.70464 | 4360 ft | 201 kts | 175° |
| 2026-04-30 19:01 | 24.89471 | 46.70142 | 4698 ft | 229 kts | 200° |
| 2026-04-30 19:02 | 24.87173 | 46.67157 | 4997 ft | 296 kts | 243° |
| 2026-04-30 19:02 | 24.85140 | 46.62611 | 5549 ft | 349 kts | 244° |
| 2026-04-30 19:03 | 24.83012 | 46.57754 | 7316 ft | 355 kts | 243° |
| 2026-04-30 19:03 | 24.80803 | 46.52828 | 8849 ft | 368 kts | 243° |
| 2026-04-30 19:04 | 24.78464 | 46.47644 | 10174 ft | 383 kts | 243° |
| 2026-04-30 19:04 | 24.76193 | 46.42623 | 11785 ft | 385 kts | 242° |
| 2026-04-30 19:05 | 24.74208 | 46.38242 | 13492 ft | 379 kts | 243° |
| 2026-04-30 19:05 | 24.71863 | 46.33075 | 15161 ft | 381 kts | 244° |
| 2026-04-30 19:06 | 24.69486 | 46.27816 | 16625 ft | 387 kts | 244° |
| 2026-04-30 19:06 | 24.68285 | 46.25161 | 17302 ft | 389 kts | 244° |
| 2026-04-30 19:06 | 24.65854 | 46.19804 | 18539 ft | 395 kts | 244° |
| 2026-04-30 19:07 | 24.63381 | 46.14371 | 19682 ft | 400 kts | 244° |
| 2026-04-30 19:07 | 24.62134 | 46.11633 | 20302 ft | 400 kts | 244° |
| 2026-04-30 19:08 | 24.59635 | 46.06149 | 21422 ft | 403 kts | 243° |
| 2026-04-30 19:08 | 24.57101 | 46.00608 | 22423 ft | 408 kts | 243° |
| 2026-04-30 19:08 | 24.55827 | 45.97816 | 22892 ft | 411 kts | 243° |
| 2026-04-30 19:09 | 24.53252 | 45.92181 | 23829 ft | 414 kts | 243° |
| 2026-04-30 19:09 | 24.51955 | 45.89348 | 24269 ft | 416 kts | 243° |
| 2026-04-30 19:09 | 24.50652 | 45.86499 | 24688 ft | 419 kts | 243° |
| 2026-04-30 19:10 | 24.48035 | 45.80768 | 25535 ft | 420 kts | 244° |
| 2026-04-30 19:10 | 24.45397 | 45.75022 | 26317 ft | 422 kts | 244° |
| 2026-04-30 19:11 | 24.44089 | 45.72182 | 26671 ft | 423 kts | 244° |
| 2026-04-30 19:11 | 24.41435 | 45.66401 | 27370 ft | 425 kts | 244° |
| 2026-04-30 19:11 | 24.40105 | 45.63503 | 27690 ft | 426 kts | 244° |
| 2026-04-30 19:12 | 24.38771 | 45.60598 | 28016 ft | 426 kts | 244° |
| 2026-04-30 19:12 | 24.37435 | 45.57694 | 28352 ft | 426 kts | 244° |
| 2026-04-30 19:12 | 24.36100 | 45.54802 | 28779 ft | 423 kts | 244° |
| 2026-04-30 19:13 | 24.33455 | 45.49079 | 29698 ft | 418 kts | 244° |
| 2026-04-30 19:13 | 24.30836 | 45.43414 | 30005 ft | 416 kts | 244° |
| 2026-04-30 19:14 | 24.28211 | 45.37722 | 30013 ft | 419 kts | 244° |
| 2026-04-30 19:14 | 24.25574 | 45.32032 | 30001 ft | 419 kts | 244° |
| 2026-04-30 19:15 | 24.22931 | 45.26326 | 30010 ft | 420 kts | 244° |
| 2026-04-30 19:15 | 24.18969 | 45.17789 | 30007 ft | 418 kts | 244° |
| 2026-04-30 19:16 | 24.16330 | 45.12118 | 30000 ft | 418 kts | 244° |
| 2026-04-30 19:17 | 24.12449 | 45.03568 | 29999 ft | 418 kts | 245° |
| 2026-04-30 19:17 | 24.08632 | 44.95037 | 30010 ft | 418 kts | 244° |
| 2026-04-30 19:18 | 24.04773 | 44.86488 | 30013 ft | 417 kts | 244° |
| 2026-04-30 19:19 | 24.02195 | 44.80804 | 30016 ft | 417 kts | 244° |
| 2026-04-30 19:19 | 23.98327 | 44.72296 | 29996 ft | 416 kts | 244° |
| 2026-04-30 19:20 | 23.95760 | 44.66628 | 29990 ft | 416 kts | 244° |
| 2026-04-30 19:21 | 23.92021 | 44.58055 | 29988 ft | 417 kts | 248° |
| 2026-04-30 19:22 | 23.87879 | 44.46226 | 29988 ft | 416 kts | 248° |
| 2026-04-30 19:23 | 23.81650 | 44.28556 | 29988 ft | 415 kts | 248° |
| 2026-04-30 19:24 | 23.78549 | 44.19790 | 29987 ft | 414 kts | 248° |
| 2026-04-30 19:25 | 23.73348 | 44.05127 | 29987 ft | 414 kts | 248° |
| 2026-04-30 19:26 | 23.69175 | 43.93394 | 29989 ft | 415 kts | 248° |
| 2026-04-30 19:27 | 23.66038 | 43.84600 | 29986 ft | 414 kts | 248° |
| 2026-04-30 19:28 | 23.62900 | 43.75816 | 29978 ft | 414 kts | 248° |
| 2026-04-30 19:29 | 23.58713 | 43.64115 | 29974 ft | 414 kts | 248° |
| 2026-04-30 19:30 | 23.54505 | 43.52421 | 29975 ft | 415 kts | 248° |
| 2026-04-30 19:31 | 23.50303 | 43.40730 | 29980 ft | 417 kts | 248° |
| 2026-04-30 19:31 | 23.47124 | 43.31906 | 29982 ft | 418 kts | 248° |
| 2026-04-30 19:32 | 23.44993 | 43.26016 | 29982 ft | 419 kts | 248° |
| 2026-04-30 19:32 | 23.42850 | 43.20111 | 29986 ft | 419 kts | 248° |
| 2026-04-30 19:33 | 23.40704 | 43.14194 | 29987 ft | 420 kts | 248° |
| 2026-04-30 19:33 | 23.38557 | 43.08271 | 29991 ft | 421 kts | 248° |
| 2026-04-30 19:34 | 23.36771 | 43.03348 | 29994 ft | 421 kts | 248° |
| 2026-04-30 19:35 | 23.33528 | 42.94469 | 29993 ft | 421 kts | 249° |
| 2026-04-30 19:35 | 23.31369 | 42.88539 | 29994 ft | 422 kts | 249° |
| 2026-04-30 19:36 | 23.29196 | 42.82605 | 29996 ft | 422 kts | 248° |
| 2026-04-30 19:36 | 23.25930 | 42.73706 | 29999 ft | 423 kts | 249° |
| 2026-04-30 19:37 | 23.23751 | 42.67769 | 30002 ft | 423 kts | 249° |
| 2026-04-30 19:37 | 23.21569 | 42.61833 | 30001 ft | 423 kts | 249° |
| 2026-04-30 19:38 | 23.19385 | 42.55892 | 30011 ft | 423 kts | 249° |
| 2026-04-30 19:38 | 23.17197 | 42.49952 | 30016 ft | 424 kts | 249° |
| 2026-04-30 19:39 | 23.15000 | 42.44010 | 30023 ft | 423 kts | 249° |
| 2026-04-30 19:39 | 23.12809 | 42.38068 | 30024 ft | 423 kts | 249° |
| 2026-04-30 19:40 | 23.10645 | 42.32122 | 30026 ft | 424 kts | 249° |
| 2026-04-30 19:40 | 23.08524 | 42.26145 | 30036 ft | 424 kts | 249° |
| 2026-04-30 19:41 | 23.06403 | 42.20170 | 30033 ft | 424 kts | 249° |
| 2026-04-30 19:41 | 23.04278 | 42.14204 | 30030 ft | 424 kts | 249° |
| 2026-04-30 19:42 | 23.02142 | 42.08238 | 30035 ft | 424 kts | 249° |
| 2026-04-30 19:42 | 22.99999 | 42.02277 | 30044 ft | 424 kts | 249° |
| 2026-04-30 19:43 | 22.97853 | 41.96307 | 30045 ft | 424 kts | 249° |
| 2026-04-30 19:44 | 22.94644 | 41.87382 | 30046 ft | 426 kts | 249° |
| 2026-04-30 19:44 | 22.92489 | 41.81397 | 30043 ft | 426 kts | 249° |
| 2026-04-30 19:45 | 22.90329 | 41.75405 | 30051 ft | 427 kts | 249° |
| 2026-04-30 19:45 | 22.88160 | 41.69410 | 30052 ft | 427 kts | 249° |
| 2026-04-30 19:46 | 22.85985 | 41.63413 | 30057 ft | 428 kts | 249° |
| 2026-04-30 19:46 | 22.83818 | 41.57409 | 30063 ft | 428 kts | 249° |
| 2026-04-30 19:47 | 22.81644 | 41.51398 | 30078 ft | 428 kts | 249° |
| 2026-04-30 19:47 | 22.79463 | 41.45390 | 30090 ft | 429 kts | 249° |
| 2026-04-30 19:48 | 22.77270 | 41.39386 | 30098 ft | 428 kts | 249° |
| 2026-04-30 19:48 | 22.75080 | 41.33384 | 30092 ft | 428 kts | 249° |
| 2026-04-30 19:49 | 22.72897 | 41.27382 | 30100 ft | 428 kts | 249° |
| 2026-04-30 19:49 | 22.69621 | 41.18443 | 30109 ft | 428 kts | 249° |
| 2026-04-30 19:50 | 22.67428 | 41.12455 | 30101 ft | 428 kts | 249° |
| 2026-04-30 19:50 | 22.65232 | 41.06465 | 30114 ft | 428 kts | 249° |
| 2026-04-30 19:51 | 22.63031 | 41.00480 | 30118 ft | 428 kts | 249° |
| 2026-04-30 19:51 | 22.60830 | 40.94495 | 30113 ft | 428 kts | 249° |
| 2026-04-30 19:52 | 22.58626 | 40.88517 | 30115 ft | 428 kts | 249° |
| 2026-04-30 19:52 | 22.56422 | 40.82535 | 30116 ft | 428 kts | 249° |
| 2026-04-30 19:53 | 22.54214 | 40.76555 | 30113 ft | 428 kts | 249° |
| 2026-04-30 19:53 | 22.52006 | 40.70584 | 30114 ft | 428 kts | 249° |
| 2026-04-30 19:54 | 22.49793 | 40.64611 | 30115 ft | 428 kts | 249° |
| 2026-04-30 19:54 | 22.47577 | 40.58642 | 30115 ft | 428 kts | 249° |
| 2026-04-30 19:55 | 22.45364 | 40.52675 | 30118 ft | 428 kts | 249° |
| 2026-04-30 19:55 | 22.43142 | 40.46711 | 30106 ft | 428 kts | 249° |
| 2026-04-30 19:56 | 22.40915 | 40.40743 | 30085 ft | 428 kts | 249° |
| 2026-04-30 19:56 | 22.38691 | 40.34777 | 30071 ft | 428 kts | 249° |
| 2026-04-30 19:57 | 22.36464 | 40.28815 | 30063 ft | 428 kts | 249° |
| 2026-04-30 19:57 | 22.34251 | 40.22882 | 30059 ft | 428 kts | 249° |
| 2026-04-30 19:58 | 22.32026 | 40.16920 | 30060 ft | 428 kts | 249° |
| 2026-04-30 19:58 | 22.29789 | 40.10965 | 30052 ft | 428 kts | 249° |
| 2026-04-30 19:59 | 22.27550 | 40.05007 | 30052 ft | 428 kts | 249° |
| 2026-04-30 19:59 | 22.24757 | 39.99336 | 30040 ft | 430 kts | 238° |
| 2026-04-30 20:00 | 22.23108 | 39.96639 | 30041 ft | 430 kts | 239° |
| 2026-04-30 20:00 | 22.19817 | 39.91254 | 30032 ft | 429 kts | 239° |
| 2026-04-30 20:01 | 22.14902 | 39.83215 | 30052 ft | 425 kts | 238° |
| 2026-04-30 20:01 | 22.11657 | 39.77924 | 29724 ft | 421 kts | 239° |
| 2026-04-30 20:02 | 22.08426 | 39.72653 | 29104 ft | 422 kts | 239° |
| 2026-04-30 20:02 | 22.06810 | 39.70018 | 28018 ft | 421 kts | 239° |
| 2026-04-30 20:03 | 22.03592 | 39.64767 | 25777 ft | 420 kts | 239° |
| 2026-04-30 20:03 | 22.01996 | 39.62167 | 24669 ft | 422 kts | 239° |
| 2026-04-30 20:03 | 22.00347 | 39.59480 | 23524 ft | 426 kts | 239° |
| 2026-04-30 20:03 | 21.98708 | 39.56810 | 22384 ft | 427 kts | 239° |
| 2026-04-30 20:04 | 21.97070 | 39.54144 | 21253 ft | 427 kts | 238° |
| 2026-04-30 20:04 | 21.95431 | 39.51480 | 20112 ft | 426 kts | 238° |
| 2026-04-30 20:04 | 21.93818 | 39.48861 | 18998 ft | 425 kts | 238° |
| 2026-04-30 20:05 | 21.90635 | 39.43539 | 16747 ft | 421 kts | 238° |
| 2026-04-30 20:05 | 21.89078 | 39.40884 | 15632 ft | 419 kts | 238° |
| 2026-04-30 20:05 | 21.85983 | 39.35618 | 13678 ft | 411 kts | 238° |
| 2026-04-30 20:06 | 21.84460 | 39.33042 | 12789 ft | 405 kts | 238° |
| 2026-04-30 20:06 | 21.82964 | 39.30523 | 11862 ft | 399 kts | 238° |
| 2026-04-30 20:06 | 21.81487 | 39.28044 | 11265 ft | 383 kts | 237° |
| 2026-04-30 20:06 | 21.80092 | 39.25704 | 11140 ft | 360 kts | 237° |
| 2026-04-30 20:07 | 21.78785 | 39.23509 | 11011 ft | 339 kts | 237° |
| 2026-04-30 20:07 | 21.77549 | 39.21431 | 10886 ft | 321 kts | 238° |
| 2026-04-30 20:07 | 21.75256 | 39.17573 | 10565 ft | 294 kts | 238° |
| 2026-04-30 20:08 | 21.74166 | 39.15736 | 10298 ft | 289 kts | 238° |
| 2026-04-30 20:08 | 21.73085 | 39.13915 | 10048 ft | 288 kts | 238° |
| 2026-04-30 20:08 | 21.72006 | 39.12100 | 9745 ft | 289 kts | 237° |
| 2026-04-30 20:08 | 21.70927 | 39.10290 | 9415 ft | 287 kts | 237° |
| 2026-04-30 20:09 | 21.69848 | 39.08482 | 9089 ft | 286 kts | 237° |
| 2026-04-30 20:09 | 21.68772 | 39.06683 | 8629 ft | 286 kts | 237° |
| 2026-04-30 20:09 | 21.65757 | 39.04090 | 7813 ft | 284 kts | 197° |
| 2026-04-30 20:10 | 21.61883 | 39.04552 | 6993 ft | 286 kts | 161° |
| 2026-04-30 20:10 | 21.60026 | 39.05284 | 6572 ft | 282 kts | 161° |
| 2026-04-30 20:10 | 21.58208 | 39.06000 | 6140 ft | 274 kts | 161° |
| 2026-04-30 20:11 | 21.54704 | 39.07377 | 5302 ft | 261 kts | 161° |
| 2026-04-30 20:11 | 21.53044 | 39.08028 | 4921 ft | 255 kts | 161° |
| 2026-04-30 20:11 | 21.51396 | 39.08675 | 4522 ft | 250 kts | 161° |
| 2026-04-30 20:12 | 21.48205 | 39.09939 | 3737 ft | 237 kts | 161° |
| 2026-04-30 20:12 | 21.46682 | 39.10543 | 3378 ft | 230 kts | 161° |
| 2026-04-30 20:12 | 21.45215 | 39.11177 | 3038 ft | 226 kts | 151° |
| 2026-04-30 20:13 | 21.44152 | 39.12390 | 2832 ft | 225 kts | 115° |
| 2026-04-30 20:13 | 21.43912 | 39.14012 | 2697 ft | 222 kts | 81° |
| 2026-04-30 20:13 | 21.44245 | 39.15616 | 2590 ft | 218 kts | 73° |
| 2026-04-30 20:13 | 21.44742 | 39.17115 | 2507 ft | 210 kts | 54° |
| 2026-04-30 20:14 | 21.45832 | 39.18076 | 2523 ft | 203 kts | 17° |
| 2026-04-30 20:14 | 21.47202 | 39.18351 | 2521 ft | 199 kts | 3° |
| 2026-04-30 20:14 | 21.48550 | 39.18471 | 2558 ft | 192 kts | 1° |
| 2026-04-30 20:14 | 21.49873 | 39.18571 | 2519 ft | 190 kts | 1° |
| 2026-04-30 20:15 | 21.51185 | 39.18669 | 2510 ft | 189 kts | 1° |
| 2026-04-30 20:15 | 21.52490 | 39.18768 | 2513 ft | 188 kts | 1° |
| 2026-04-30 20:15 | 21.53795 | 39.18865 | 2513 ft | 187 kts | 1° |
| 2026-04-30 20:15 | 21.55036 | 39.18709 | 2449 ft | 178 kts | 339° |
| 2026-04-30 20:16 | 21.56186 | 39.18250 | 2265 ft | 174 kts | 338° |
| 2026-04-30 20:16 | 21.57310 | 39.17805 | 2051 ft | 168 kts | 339° |
| 2026-04-30 20:16 | 21.58389 | 39.17379 | 1839 ft | 163 kts | 339° |
| 2026-04-30 20:16 | 21.59448 | 39.16961 | 1630 ft | 161 kts | 339° |
| 2026-04-30 20:17 | 21.60497 | 39.16547 | 1413 ft | 159 kts | 340° |
| 2026-04-30 20:17 | 21.61460 | 39.16167 | 1216 ft | 137 kts | 340° |
| 2026-04-30 20:17 | 21.62303 | 39.15835 | 1039 ft | 123 kts | 340° |
| 2026-04-30 20:17 | 21.63087 | 39.15526 | 881 ft | 118 kts | 340° |
| 2026-04-30 20:18 | 21.63852 | 39.15225 | 728 ft | 116 kts | 340° |
| 2026-04-30 20:18 | 21.64610 | 39.14927 | 577 ft | 116 kts | 340° |
| 2026-04-30 20:18 | 21.65368 | 39.14637 | 412 ft | 115 kts | 340° |
| 2026-04-30 20:18 | 21.66120 | 39.14338 | 258 ft | 116 kts | 340° |
| 2026-04-30 20:19 | 21.66873 | 39.14034 | 107 ft | 115 kts | 339° |
| 2026-04-30 20:19 | 21.67370 | 39.13835 | 32 ft | 112 kts | 339° |
| 2026-04-30 20:19 | 21.67996 | 39.13588 | 30 ft | 77 kts | 339° |
| 2026-04-30 20:19 | 21.68589 | 39.13353 | 27 ft | 60 kts | 340° |
| 2026-04-30 20:20 | 21.68836 | 39.13255 | 26 ft | 55 kts | 340° |
| 2026-04-30 20:20 | 21.69113 | 39.13085 | 25 ft | 41 kts | 314° |
| 2026-04-30 20:20 | 21.69201 | 39.12971 | 29 ft | 0 kts | 307° |
| 2026-04-30 20:26 | 21.69205 | 39.12949 | 26 ft | 7 kts | 268° |
| 2026-04-30 20:26 | 21.69145 | 39.12915 | 24 ft | 15 kts | 161° |
| 2026-04-30 20:27 | 21.68892 | 39.13015 | 29 ft | 20 kts | 160° |
| 2026-04-30 20:27 | 21.68610 | 39.13127 | 29 ft | 24 kts | 160° |
| 2026-04-30 20:28 | 21.68264 | 39.13265 | 26 ft | 29 kts | 160° |
| 2026-04-30 20:28 | 21.67872 | 39.13421 | 28 ft | 30 kts | 160° |
| 2026-04-30 20:29 | 21.67573 | 39.13538 | 28 ft | 8 kts | 160° |
| 2026-04-30 20:30 | 21.67525 | 39.13461 | 27 ft | 0 kts | 250° |